createdAt,value
2023-06-20T00:01:30.565Z,23.80
2023-06-20T00:03:57.419Z,23.80
2023-06-20T00:06:24.281Z,23.70
2023-06-20T00:08:51.814Z,23.70
2023-06-20T00:11:18.673Z,23.70
2023-06-20T00:13:45.554Z,23.70
2023-06-20T00:16:12.657Z,23.70
2023-06-20T00:18:39.552Z,23.70
2023-06-20T00:21:06.394Z,23.70
2023-06-20T00:23:33.219Z,23.70
2023-06-20T00:26:00.051Z,23.70
2023-06-20T00:28:26.992Z,23.60
2023-06-20T00:30:54.647Z,23.60
2023-06-20T00:33:24.541Z,23.60
2023-06-20T00:35:51.439Z,23.60
2023-06-20T00:38:19.473Z,23.60
2023-06-20T00:40:46.478Z,23.60
2023-06-20T00:43:13.562Z,23.60
2023-06-20T00:45:40.456Z,23.60
2023-06-20T00:48:08.058Z,23.60
2023-06-20T00:50:35.535Z,23.60
2023-06-20T00:53:06.752Z,23.50
2023-06-20T00:55:35.033Z,23.50
2023-06-20T00:58:02.878Z,23.50
2023-06-20T01:00:34.323Z,23.50
2023-06-20T01:03:13.303Z,23.40
2023-06-20T01:05:49.981Z,23.40
2023-06-20T01:08:27.082Z,23.40
2023-06-20T01:11:26.433Z,23.40
2023-06-20T01:14:01.365Z,23.30
2023-06-20T01:16:36.573Z,23.40
2023-06-20T01:19:26.728Z,23.30
2023-06-20T01:21:55.345Z,23.30
2023-06-20T01:24:31.177Z,23.30
2023-06-20T01:27:01.164Z,23.30
2023-06-20T01:29:35.883Z,23.30
2023-06-20T01:32:06.236Z,23.30
2023-06-20T01:34:38.629Z,23.30
2023-06-20T01:37:07.933Z,23.20
2023-06-20T01:39:43.022Z,23.30
2023-06-20T01:42:10.555Z,23.20
2023-06-20T01:44:38.785Z,23.20
2023-06-20T01:47:07.164Z,23.20
2023-06-20T01:49:34.468Z,23.20
2023-06-20T01:52:01.930Z,23.20
2023-06-20T01:54:30.389Z,23.20
2023-06-20T01:57:00.583Z,23.20
2023-06-20T01:59:28.282Z,23.20
2023-06-20T02:01:56.344Z,23.20
2023-06-20T02:04:25.185Z,23.20
2023-06-20T02:06:52.155Z,23.10
2023-06-20T02:09:20.056Z,23.10
2023-06-20T02:11:47.720Z,23.10
2023-06-20T02:14:15.030Z,23.10
2023-06-20T02:16:42.343Z,23.10
2023-06-20T02:19:10.809Z,23.00
2023-06-20T02:21:41.363Z,23.00
2023-06-20T02:24:11.867Z,23.00
2023-06-20T02:26:40.766Z,23.00
2023-06-20T02:29:09.402Z,23.00
2023-06-20T02:31:39.667Z,23.00
2023-06-20T02:34:08.895Z,23.00
2023-06-20T02:36:36.722Z,23.00
2023-06-20T02:39:05.901Z,22.90
2023-06-20T02:41:32.767Z,22.90
2023-06-20T02:43:59.679Z,23.00
2023-06-20T02:46:35.687Z,23.00
2023-06-20T02:49:18.421Z,23.00
2023-06-20T02:51:52.724Z,22.90
2023-06-20T02:54:25.929Z,22.90
2023-06-20T02:56:54.426Z,22.80
2023-06-20T02:59:25.441Z,22.90
2023-06-20T03:01:55.724Z,22.90
2023-06-20T03:04:25.789Z,22.90
2023-06-20T03:06:53.866Z,22.90
2023-06-20T03:09:22.425Z,22.90
2023-06-20T03:11:49.394Z,22.90
2023-06-20T03:14:16.245Z,22.90
2023-06-20T03:16:46.128Z,22.90
2023-06-20T03:19:13.127Z,22.90
2023-06-20T03:21:42.535Z,22.90
2023-06-20T03:24:12.277Z,22.90
2023-06-20T03:26:39.396Z,22.90
2023-06-20T03:29:06.837Z,22.90
2023-06-20T03:31:35.333Z,22.90
2023-06-20T03:34:02.241Z,22.90
2023-06-20T03:36:30.264Z,22.90
2023-06-20T03:38:57.156Z,22.90
2023-06-20T03:41:25.549Z,22.90
2023-06-20T03:43:53.439Z,22.90
2023-06-20T03:46:20.652Z,22.90
2023-06-20T03:48:48.894Z,22.90
2023-06-20T03:51:17.009Z,22.90
2023-06-20T03:53:44.141Z,22.90
2023-06-20T03:56:12.337Z,22.90
2023-06-20T03:58:40.669Z,23.00
2023-06-20T04:01:08.196Z,23.00
2023-06-20T04:03:35.283Z,23.00
2023-06-20T04:06:04.767Z,23.00
2023-06-20T04:08:31.792Z,23.10
2023-06-20T04:11:00.759Z,23.10
2023-06-20T04:13:28.547Z,23.20
2023-06-20T04:15:55.434Z,23.20
2023-06-20T04:18:22.283Z,23.20
2023-06-20T04:20:50.031Z,23.30
2023-06-20T04:23:16.996Z,23.30
2023-06-20T04:25:45.168Z,23.30
2023-06-20T04:28:12.037Z,23.40
2023-06-20T04:30:56.574Z,23.50
2023-06-20T04:33:24.127Z,23.50
2023-06-20T04:35:56.181Z,23.60
2023-06-20T04:38:23.482Z,23.70
2023-06-20T04:40:51.160Z,23.80
2023-06-20T04:43:18.701Z,23.90
2023-06-20T04:45:45.581Z,24.00
2023-06-20T04:48:12.573Z,24.00
2023-06-20T04:50:39.519Z,24.10
2023-06-20T04:53:06.377Z,24.20
2023-06-20T04:55:33.240Z,24.30
2023-06-20T04:58:00.147Z,24.40
2023-06-20T05:00:28.336Z,24.50
2023-06-20T05:02:59.937Z,24.60
2023-06-20T05:05:30.347Z,24.80
2023-06-20T05:07:58.016Z,24.90
2023-06-20T05:10:25.458Z,25.00
2023-06-20T05:12:52.586Z,25.20
2023-06-20T05:15:25.201Z,25.30
2023-06-20T05:17:52.462Z,25.50
2023-06-20T05:20:19.817Z,25.60
2023-06-20T05:22:46.957Z,25.80
2023-06-20T05:25:13.889Z,25.90
2023-06-20T05:27:40.774Z,26.10
2023-06-20T05:30:07.859Z,26.30
2023-06-20T05:32:34.928Z,26.70
2023-06-20T05:35:02.097Z,27.20
2023-06-20T05:37:30.195Z,27.80
2023-06-20T05:39:59.021Z,28.30
2023-06-20T05:42:27.837Z,28.60
2023-06-20T05:44:54.656Z,28.80
2023-06-20T05:47:21.666Z,28.80
2023-06-20T05:49:48.776Z,28.80
2023-06-20T05:52:16.094Z,29.00
2023-06-20T05:54:44.500Z,29.20
2023-06-20T05:57:11.386Z,29.40
2023-06-20T05:59:38.306Z,29.60
2023-06-20T06:02:06.506Z,29.80
2023-06-20T06:04:35.079Z,29.90
2023-06-20T06:07:02.167Z,30.10
2023-06-20T06:09:29.063Z,30.30
2023-06-20T06:11:55.913Z,30.50
2023-06-20T06:14:22.742Z,30.70
2023-06-20T06:16:49.651Z,30.90
2023-06-20T06:19:16.540Z,30.90
2023-06-20T06:21:43.398Z,30.80
2023-06-20T06:24:10.650Z,30.90
2023-06-20T06:26:37.580Z,31.10
2023-06-20T06:29:05.467Z,31.30
2023-06-20T06:31:34.379Z,31.30
2023-06-20T06:34:03.510Z,31.40
2023-06-20T06:36:34.837Z,31.50
2023-06-20T06:39:02.131Z,31.60
2023-06-20T06:41:29.057Z,31.90
2023-06-20T06:43:55.942Z,32.00
2023-06-20T06:46:23.506Z,32.40
2023-06-20T06:48:50.723Z,32.60
2023-06-20T06:51:17.837Z,32.60
2023-06-20T06:53:44.767Z,32.30
2023-06-20T06:56:11.882Z,31.60
2023-06-20T06:58:38.766Z,30.90
2023-06-20T07:01:05.614Z,30.40
2023-06-20T07:03:34.460Z,29.80
2023-06-20T07:06:01.660Z,29.40
2023-06-20T07:08:28.482Z,29.20
2023-06-20T07:10:55.339Z,29.10
2023-06-20T07:13:25.302Z,29.00
2023-06-20T07:15:52.307Z,28.80
2023-06-20T07:18:19.298Z,28.60
2023-06-20T07:20:46.637Z,28.30
2023-06-20T07:23:13.467Z,28.30
2023-06-20T07:25:40.368Z,28.20
2023-06-20T07:28:07.577Z,28.10
2023-06-20T07:30:34.480Z,28.00
2023-06-20T07:33:01.369Z,28.00
2023-06-20T07:35:28.554Z,27.90
2023-06-20T07:37:55.640Z,27.90
2023-06-20T07:40:22.452Z,28.20
2023-06-20T07:42:49.328Z,28.20
2023-06-20T07:45:16.197Z,28.20
2023-06-20T07:47:43.077Z,28.10
2023-06-20T07:50:10.311Z,28.10
2023-06-20T07:52:37.383Z,28.10
2023-06-20T07:55:13.700Z,28.20
2023-06-20T07:57:48.768Z,28.30
2023-06-20T08:00:15.876Z,28.30
2023-06-20T08:02:43.458Z,28.40
2023-06-20T08:05:10.541Z,28.40
2023-06-20T08:07:37.364Z,28.40
2023-06-20T08:10:04.776Z,28.50
2023-06-20T08:12:31.977Z,28.70
2023-06-20T08:14:58.833Z,28.70
2023-06-20T08:17:25.701Z,28.70
2023-06-20T08:19:52.589Z,28.60
2023-06-20T08:22:19.465Z,28.50
2023-06-20T08:24:46.353Z,28.50
2023-06-20T08:27:13.180Z,28.30
2023-06-20T08:29:40.151Z,28.40
2023-06-20T08:32:07.265Z,28.50
2023-06-20T08:34:34.130Z,28.70
2023-06-20T08:37:00.968Z,29.00
2023-06-20T08:39:27.828Z,29.00
2023-06-20T08:41:55.371Z,29.00
2023-06-20T08:44:22.298Z,29.00
2023-06-20T08:46:55.632Z,28.90
2023-06-20T08:49:22.668Z,29.00
2023-06-20T08:51:50.508Z,29.00
2023-06-20T08:54:20.057Z,29.10
2023-06-20T08:56:48.368Z,29.20
2023-06-20T08:59:15.221Z,29.30
2023-06-20T09:01:43.467Z,29.40
2023-06-20T09:04:12.856Z,29.70
2023-06-20T09:06:39.790Z,30.10
2023-06-20T09:09:06.729Z,30.50
2023-06-20T09:11:39.320Z,30.80
2023-06-20T09:14:06.178Z,30.80
2023-06-20T09:16:33.277Z,30.70
2023-06-20T09:19:00.908Z,30.60
2023-06-20T09:21:28.107Z,30.60
2023-06-20T09:24:05.004Z,30.70
2023-06-20T09:26:32.289Z,30.80
2023-06-20T09:29:25.372Z,30.90
2023-06-20T09:31:52.574Z,31.00
2023-06-20T09:34:20.195Z,31.30
2023-06-20T09:36:47.466Z,31.60
2023-06-20T09:39:24.452Z,31.60
2023-06-20T09:41:52.267Z,31.50
2023-06-20T09:44:19.312Z,31.40
2023-06-20T09:46:46.588Z,31.50
2023-06-20T09:49:14.582Z,31.70
2023-06-20T09:51:48.801Z,32.00
2023-06-20T09:54:22.923Z,32.10
2023-06-20T09:56:54.074Z,31.90
2023-06-20T09:59:22.656Z,31.70
2023-06-20T10:01:50.230Z,31.70
2023-06-20T10:04:18.469Z,31.90
2023-06-20T10:06:45.518Z,32.00
2023-06-20T10:09:12.848Z,32.30
2023-06-20T10:11:41.119Z,32.60
2023-06-20T10:14:09.531Z,32.80
2023-06-20T10:16:36.482Z,32.70
2023-06-20T10:19:19.079Z,32.70
2023-06-20T10:22:00.617Z,32.40
2023-06-20T10:24:28.646Z,32.10
2023-06-20T10:26:56.190Z,32.10
2023-06-20T10:29:23.341Z,32.00
2023-06-20T10:31:54.715Z,31.90
2023-06-20T10:34:38.034Z,32.10
2023-06-20T10:37:24.563Z,32.40
2023-06-20T10:39:54.567Z,32.80
2023-06-20T10:42:33.878Z,33.00
2023-06-20T10:45:21.080Z,33.00
2023-06-20T10:47:48.942Z,33.10
2023-06-20T10:50:16.628Z,33.40
2023-06-20T10:52:43.711Z,33.50
2023-06-20T10:55:14.774Z,33.50
2023-06-20T10:57:45.904Z,33.30
2023-06-20T11:00:15.721Z,33.20
2023-06-20T11:02:43.011Z,32.90
2023-06-20T11:05:13.221Z,32.60
2023-06-20T11:08:08.625Z,32.60
2023-06-20T11:10:37.224Z,32.70
2023-06-20T11:13:05.056Z,32.90
2023-06-20T11:15:32.876Z,33.20
2023-06-20T11:18:03.755Z,33.50
2023-06-20T11:20:31.107Z,33.60
2023-06-20T11:22:58.567Z,33.70
2023-06-20T11:25:32.529Z,33.60
2023-06-20T11:28:08.632Z,33.50
2023-06-20T11:30:36.424Z,33.60
2023-06-20T11:33:05.023Z,33.70
2023-06-20T11:35:54.013Z,33.90
2023-06-20T11:38:28.399Z,33.70
2023-06-20T11:41:05.656Z,33.40
2023-06-20T11:43:39.876Z,33.40
2023-06-20T11:46:07.343Z,33.10
2023-06-20T11:48:34.378Z,32.90
2023-06-20T11:51:02.472Z,32.80
2023-06-20T11:53:30.569Z,32.70
2023-06-20T11:56:01.273Z,32.50
2023-06-20T11:58:28.989Z,32.50
2023-06-20T12:01:00.369Z,32.50
2023-06-20T12:03:27.265Z,32.50
2023-06-20T12:05:57.902Z,32.50
2023-06-20T12:08:25.457Z,32.40
2023-06-20T12:11:03.123Z,32.30
2023-06-20T12:13:30.256Z,32.30
2023-06-20T12:15:57.659Z,32.50
2023-06-20T12:18:24.718Z,32.50
2023-06-20T12:21:03.286Z,32.60
2023-06-20T12:23:31.648Z,32.90
2023-06-20T12:25:59.978Z,33.20
2023-06-20T12:28:26.849Z,33.30
2023-06-20T12:30:54.169Z,33.20
2023-06-20T12:33:20.998Z,33.20
2023-06-20T12:35:47.848Z,33.40
2023-06-20T12:38:14.735Z,33.50
2023-06-20T12:40:41.581Z,33.40
2023-06-20T12:43:08.445Z,33.30
2023-06-20T12:45:35.312Z,33.20
2023-06-20T12:48:02.447Z,33.10
2023-06-20T12:50:29.412Z,33.10
2023-06-20T12:52:56.323Z,33.00
2023-06-20T12:55:23.339Z,32.90
2023-06-20T12:57:50.616Z,32.90
2023-06-20T13:00:18.088Z,33.00
2023-06-20T13:02:44.930Z,33.10
2023-06-20T13:05:12.751Z,33.30
2023-06-20T13:07:41.089Z,33.50
2023-06-20T13:10:08.425Z,33.80
2023-06-20T13:12:36.290Z,33.90
2023-06-20T13:15:08.145Z,34.20
2023-06-20T13:17:35.808Z,34.30
2023-06-20T13:20:04.705Z,34.40
2023-06-20T13:22:31.537Z,34.40
2023-06-20T13:24:58.450Z,34.40
2023-06-20T13:27:28.105Z,34.50
2023-06-20T13:29:55.772Z,34.60
2023-06-20T13:32:22.963Z,34.70
2023-06-20T13:34:49.975Z,34.70
2023-06-20T13:37:16.867Z,34.70
2023-06-20T13:39:44.967Z,34.90
2023-06-20T13:42:12.050Z,34.90
2023-06-20T13:44:42.279Z,34.90
2023-06-20T13:47:10.889Z,34.80
2023-06-20T13:49:37.843Z,34.70
2023-06-20T13:52:04.868Z,34.70
2023-06-20T13:54:31.848Z,34.60
2023-06-20T13:56:58.758Z,34.50
2023-06-20T13:59:27.273Z,34.40
2023-06-20T14:01:54.689Z,34.50
2023-06-20T14:04:21.718Z,34.50
2023-06-20T14:06:48.736Z,34.40
2023-06-20T14:09:15.717Z,34.40
2023-06-20T14:11:42.605Z,34.30
2023-06-20T14:14:10.415Z,34.10
2023-06-20T14:16:37.424Z,34.10
2023-06-20T14:19:05.426Z,34.30
2023-06-20T14:21:32.556Z,34.30
2023-06-20T14:23:59.520Z,34.40
2023-06-20T14:26:26.643Z,34.50
2023-06-20T14:28:53.505Z,34.50
2023-06-20T14:31:20.438Z,34.40
2023-06-20T14:33:47.439Z,34.30
2023-06-20T14:36:14.327Z,34.20
2023-06-20T14:38:42.332Z,34.20
2023-06-20T14:41:10.403Z,34.30
2023-06-20T14:43:37.410Z,34.30
2023-06-20T14:46:04.421Z,34.20
2023-06-20T14:48:31.352Z,34.00
2023-06-20T14:50:58.385Z,34.00
2023-06-20T14:53:25.674Z,34.00
2023-06-20T14:55:55.429Z,34.20
2023-06-20T14:58:22.264Z,34.20
2023-06-20T15:00:49.129Z,34.10
2023-06-20T15:03:16.065Z,33.90
2023-06-20T15:05:43.132Z,33.80
2023-06-20T15:08:11.139Z,33.80
2023-06-20T15:10:38.017Z,34.00
2023-06-20T15:13:04.980Z,34.00
2023-06-20T15:15:31.836Z,34.00
2023-06-20T15:17:59.602Z,33.90
2023-06-20T15:20:28.584Z,33.80
2023-06-20T15:22:56.892Z,33.80
2023-06-20T15:25:24.101Z,33.80
2023-06-20T15:27:50.984Z,33.80
2023-06-20T15:30:22.130Z,33.80
2023-06-20T15:32:49.076Z,33.80
2023-06-20T15:35:16.009Z,33.80
2023-06-20T15:37:42.983Z,33.70
2023-06-20T15:40:10.124Z,33.60
2023-06-20T15:42:37.101Z,33.50
2023-06-20T15:45:05.590Z,33.40
2023-06-20T15:47:32.965Z,33.30
2023-06-20T15:50:00.837Z,33.30
2023-06-20T15:52:28.008Z,33.20
2023-06-20T15:54:54.876Z,33.30
2023-06-20T15:57:21.963Z,33.30
2023-06-20T15:59:49.914Z,33.30
2023-06-20T16:02:20.120Z,33.20
2023-06-20T16:04:50.456Z,33.10
2023-06-20T16:07:17.765Z,33.20
2023-06-20T16:09:44.694Z,33.20
2023-06-20T16:12:11.940Z,32.90
2023-06-20T16:14:40.166Z,32.70
2023-06-20T16:17:07.560Z,32.60
2023-06-20T16:19:35.011Z,32.50
2023-06-20T16:22:01.962Z,32.60
2023-06-20T16:24:29.597Z,32.70
2023-06-20T16:26:57.293Z,32.60
2023-06-20T16:29:24.204Z,32.60
2023-06-20T16:31:51.062Z,32.60
2023-06-20T16:34:19.412Z,32.50
2023-06-20T16:36:46.465Z,32.50
2023-06-20T16:39:13.362Z,32.40
2023-06-20T16:41:42.487Z,32.40
2023-06-20T16:44:11.365Z,32.30
2023-06-20T16:46:39.107Z,32.10
2023-06-20T16:49:06.048Z,32.10
2023-06-20T16:51:33.212Z,32.20
2023-06-20T16:54:00.036Z,32.30
2023-06-20T16:56:26.956Z,32.40
2023-06-20T16:58:54.469Z,32.50
2023-06-20T17:01:21.605Z,32.50
2023-06-20T17:03:48.600Z,32.50
2023-06-20T17:06:15.530Z,32.40
2023-06-20T17:08:42.374Z,32.40
2023-06-20T17:11:09.256Z,32.30
2023-06-20T17:13:36.152Z,32.20
2023-06-20T17:16:03.052Z,32.10
2023-06-20T17:18:29.958Z,32.10
2023-06-20T17:20:56.788Z,32.00
2023-06-20T17:23:23.596Z,31.90
2023-06-20T17:25:50.460Z,31.90
2023-06-20T17:28:17.321Z,31.90
2023-06-20T17:30:44.182Z,31.80
2023-06-20T17:33:11.091Z,31.80
2023-06-20T17:35:37.911Z,31.70
2023-06-20T17:38:04.773Z,31.60
2023-06-20T17:40:31.682Z,31.60
2023-06-20T17:42:58.514Z,31.40
2023-06-20T17:45:25.447Z,31.40
2023-06-20T17:47:52.333Z,31.30
2023-06-20T17:50:19.225Z,31.20
2023-06-20T17:52:46.123Z,31.10
2023-06-20T17:55:13.024Z,31.00
2023-06-20T17:57:54.707Z,30.90
2023-06-20T18:00:26.678Z,30.80
2023-06-20T18:02:53.892Z,30.70
2023-06-20T18:05:20.892Z,30.60
2023-06-20T18:07:47.791Z,30.40
2023-06-20T18:10:14.662Z,30.30
2023-06-20T18:12:41.560Z,30.20
2023-06-20T18:15:08.545Z,30.10
2023-06-20T18:17:35.482Z,29.90
2023-06-20T18:20:02.643Z,29.80
2023-06-20T18:22:29.547Z,29.60
2023-06-20T18:24:56.418Z,29.50
2023-06-20T18:27:23.415Z,29.30
2023-06-20T18:29:50.391Z,29.20
2023-06-20T18:32:19.261Z,29.10
2023-06-20T18:34:46.648Z,28.90
2023-06-20T18:37:13.478Z,28.80
2023-06-20T18:39:40.430Z,28.70
2023-06-20T18:42:07.399Z,28.50
2023-06-20T18:44:34.203Z,28.40
2023-06-20T18:47:01.348Z,28.40
2023-06-20T18:49:29.101Z,28.30
2023-06-20T18:51:55.991Z,28.20
2023-06-20T18:54:22.886Z,28.10
2023-06-20T18:56:50.466Z,28.00
2023-06-20T18:59:17.526Z,27.90
2023-06-20T19:01:46.669Z,27.80
2023-06-20T19:04:13.758Z,27.70
2023-06-20T19:06:40.785Z,27.60
2023-06-20T19:09:09.408Z,27.50
2023-06-20T19:11:36.497Z,27.40
2023-06-20T19:14:05.257Z,27.30
2023-06-20T19:16:32.515Z,27.20
2023-06-20T19:18:59.484Z,27.20
2023-06-20T19:21:26.386Z,27.10
2023-06-20T19:23:56.745Z,27.00
2023-06-20T19:26:24.292Z,26.90
2023-06-20T19:28:51.156Z,26.90
2023-06-20T19:31:18.227Z,26.90
2023-06-20T19:33:47.251Z,26.70
2023-06-20T19:36:14.312Z,26.70
2023-06-20T19:38:41.331Z,26.70
2023-06-20T19:41:08.574Z,26.60
2023-06-20T19:43:35.640Z,26.50
2023-06-20T19:46:02.695Z,26.40
2023-06-20T19:48:29.701Z,26.40
2023-06-20T19:50:57.383Z,26.30
2023-06-20T19:53:24.368Z,26.20
2023-06-20T19:55:51.273Z,26.20
2023-06-20T19:58:18.152Z,26.10
2023-06-20T20:00:49.127Z,26.10
2023-06-20T20:03:16.664Z,26.00
2023-06-20T20:05:43.901Z,26.00
2023-06-20T20:08:11.981Z,25.90
2023-06-20T20:10:38.858Z,25.80
2023-06-20T20:13:05.698Z,25.80
2023-06-20T20:15:32.690Z,25.70
2023-06-20T20:17:59.623Z,25.70
2023-06-20T20:20:26.918Z,25.70
2023-06-20T20:22:56.007Z,25.70
2023-06-20T20:25:22.932Z,25.60
2023-06-20T20:27:50.686Z,25.60
2023-06-20T20:30:17.703Z,25.60
2023-06-20T20:32:46.998Z,25.60
2023-06-20T20:35:14.395Z,25.60
2023-06-20T20:37:41.259Z,25.60
2023-06-20T20:40:08.516Z,25.60
2023-06-20T20:42:35.541Z,25.50
2023-06-20T20:45:02.738Z,25.50
2023-06-20T20:47:29.591Z,25.40
2023-06-20T20:49:56.487Z,25.40
2023-06-20T20:52:23.351Z,25.40
2023-06-20T20:54:50.317Z,25.30
2023-06-20T20:57:17.253Z,25.30
2023-06-20T20:59:44.092Z,25.20
2023-06-20T21:02:11.231Z,25.20
2023-06-20T21:04:38.176Z,25.20
2023-06-20T21:07:05.161Z,25.20
2023-06-20T21:09:32.093Z,25.20
2023-06-20T21:11:58.931Z,25.10
2023-06-20T21:14:25.821Z,25.10
2023-06-20T21:16:52.798Z,25.00
2023-06-20T21:19:21.779Z,25.00
2023-06-20T21:21:48.789Z,24.90
2023-06-20T21:24:15.863Z,24.90
2023-06-20T21:26:42.797Z,24.80
2023-06-20T21:29:10.474Z,24.80
2023-06-20T21:31:37.361Z,24.80
2023-06-20T21:34:04.264Z,24.80
2023-06-20T21:36:31.270Z,24.70
2023-06-20T21:38:58.154Z,24.70
2023-06-20T21:41:25.060Z,24.70
2023-06-20T21:43:51.935Z,24.70
2023-06-20T21:46:18.932Z,24.60
2023-06-20T21:48:45.831Z,24.60
2023-06-20T21:51:12.699Z,24.60
2023-06-20T21:53:40.579Z,24.60
2023-06-20T21:56:07.402Z,24.50
2023-06-20T21:58:34.222Z,24.50
2023-06-20T22:01:01.078Z,24.50
2023-06-20T22:03:28.018Z,24.50
2023-06-20T22:05:55.866Z,24.40
2023-06-20T22:08:22.817Z,24.40
2023-06-20T22:13:19.414Z,24.40
2023-06-20T22:15:46.324Z,24.40
2023-06-20T22:18:13.250Z,24.40
2023-06-20T22:20:40.228Z,24.40
2023-06-20T22:23:08.087Z,24.40
2023-06-20T22:25:36.766Z,24.40
2023-06-20T22:28:03.861Z,24.30
2023-06-20T22:30:30.802Z,24.30
2023-06-20T22:32:57.800Z,24.30
2023-06-20T22:35:24.707Z,24.30
2023-06-20T22:37:51.564Z,24.20
2023-06-20T22:40:18.428Z,24.20
2023-06-20T22:42:45.366Z,24.20
2023-06-20T22:45:12.186Z,24.10
2023-06-20T22:47:39.061Z,24.10
2023-06-20T22:50:06.200Z,24.10
2023-06-20T22:52:33.119Z,24.10
2023-06-20T22:54:59.999Z,24.10
2023-06-20T22:57:26.910Z,24.10
2023-06-20T22:59:53.791Z,24.10
2023-06-20T23:02:20.822Z,24.10
2023-06-20T23:04:47.802Z,24.00
2023-06-20T23:07:14.606Z,24.10
2023-06-20T23:09:42.731Z,24.10
2023-06-20T23:12:10.421Z,24.00
2023-06-20T23:14:38.081Z,24.00
2023-06-20T23:17:05.504Z,24.00
2023-06-20T23:19:32.942Z,24.00
2023-06-20T23:21:59.995Z,24.00
2023-06-20T23:24:26.884Z,24.00
2023-06-20T23:26:55.347Z,24.10
2023-06-20T23:29:22.290Z,24.10
2023-06-20T23:31:49.432Z,24.10
2023-06-20T23:34:16.961Z,24.10
2023-06-20T23:36:44.011Z,24.10
2023-06-20T23:39:11.021Z,24.10
2023-06-20T23:41:39.009Z,24.10
2023-06-20T23:44:13.729Z,24.10
2023-06-20T23:46:40.955Z,24.10
2023-06-20T23:49:07.913Z,24.00
2023-06-20T23:51:36.432Z,24.00
2023-06-20T23:54:05.217Z,24.00
2023-06-20T23:56:35.445Z,24.00
2023-06-20T23:59:05.895Z,24.00
